createdAt,value
2018-09-17T00:00:53.534Z,17.63
2018-09-17T00:01:53.501Z,17.65
2018-09-17T00:02:53.470Z,17.59
2018-09-17T00:03:53.438Z,17.59
2018-09-17T00:04:53.395Z,17.60
2018-09-17T00:05:53.358Z,17.60
2018-09-17T00:06:53.331Z,17.57
2018-09-17T00:07:53.294Z,17.59
2018-09-17T00:08:53.259Z,17.56
2018-09-17T00:09:53.230Z,17.57
2018-09-17T00:10:53.185Z,17.54
2018-09-17T00:11:53.153Z,17.49
2018-09-17T00:12:53.121Z,17.63
2018-09-17T00:13:53.172Z,17.63
2018-09-17T00:14:53.053Z,17.59
2018-09-17T00:15:53.020Z,17.57
2018-09-17T00:16:52.983Z,17.57
2018-09-17T00:17:52.949Z,17.60
2018-09-17T00:18:52.909Z,17.63
2018-09-17T00:19:52.876Z,17.64
2018-09-17T00:20:52.844Z,17.59
2018-09-17T00:21:52.814Z,17.59
2018-09-17T00:22:52.773Z,17.59
2018-09-17T00:23:52.738Z,17.59
2018-09-17T00:24:52.705Z,17.52
2018-09-17T00:25:52.667Z,17.63
2018-09-17T00:26:52.639Z,17.56
2018-09-17T00:27:52.603Z,17.60
2018-09-17T00:28:52.567Z,17.56
2018-09-17T00:29:52.534Z,17.63
2018-09-17T00:30:52.496Z,17.56
2018-09-17T00:31:52.462Z,17.63
2018-09-17T00:32:52.431Z,17.60
2018-09-17T00:33:52.391Z,17.56
2018-09-17T00:34:52.363Z,17.60
2018-09-17T00:35:52.325Z,17.56
2018-09-17T00:36:52.289Z,17.63
2018-09-17T00:37:52.253Z,17.56
2018-09-17T00:38:52.223Z,17.56
2018-09-17T00:39:52.220Z,17.56
2018-09-17T00:40:52.152Z,17.56
2018-09-17T00:41:52.119Z,17.54
2018-09-17T00:42:52.080Z,17.46
2018-09-17T00:43:52.046Z,17.45
2018-09-17T00:44:52.013Z,17.51
2018-09-17T00:45:51.976Z,17.48
2018-09-17T00:46:51.948Z,17.45
2018-09-17T00:47:51.912Z,17.51
2018-09-17T00:48:51.879Z,17.48
2018-09-17T00:49:51.844Z,17.57
2018-09-17T00:50:51.968Z,17.56
2018-09-17T00:51:51.778Z,17.52
2018-09-17T00:52:51.744Z,17.48
2018-09-17T00:53:51.707Z,17.52
2018-09-17T00:54:51.667Z,17.46
2018-09-17T00:55:51.632Z,17.52
2018-09-17T00:56:51.599Z,17.33
2018-09-17T00:57:51.574Z,17.34
2018-09-17T00:58:51.532Z,17.42
2018-09-17T00:59:51.499Z,17.41
2018-09-17T01:00:51.462Z,17.33
2018-09-17T01:01:51.428Z,17.34
2018-09-17T01:02:51.389Z,17.33
2018-09-17T01:03:51.357Z,17.38
2018-09-17T01:04:51.325Z,17.33
2018-09-17T01:05:51.284Z,17.30
2018-09-17T01:06:51.256Z,17.22
2018-09-17T01:07:51.220Z,17.22
2018-09-17T01:08:51.183Z,17.24
2018-09-17T01:09:51.158Z,17.31
2018-09-17T01:10:51.123Z,17.23
2018-09-17T01:11:51.086Z,17.23
2018-09-17T01:12:51.052Z,17.22
2018-09-17T01:13:51.017Z,17.30
2018-09-17T01:14:50.976Z,17.24
2018-09-17T01:15:50.942Z,17.22
2018-09-17T01:16:50.904Z,17.23
2018-09-17T01:17:50.871Z,17.19
2018-09-17T01:18:50.839Z,17.12
2018-09-17T01:19:50.808Z,17.06
2018-09-17T01:20:50.773Z,17.14
2018-09-17T01:21:50.735Z,17.11
2018-09-17T01:22:50.722Z,17.14
2018-09-17T01:23:50.662Z,17.08
2018-09-17T01:24:50.640Z,17.14
2018-09-17T01:25:50.596Z,17.06
2018-09-17T01:26:50.560Z,17.08
2018-09-17T01:27:50.524Z,17.05
2018-09-17T01:28:50.489Z,17.09
2018-09-17T01:29:50.843Z,17.08
2018-09-17T01:30:50.425Z,17.06
2018-09-17T01:31:50.391Z,17.01
2018-09-17T01:32:50.357Z,16.91
2018-09-17T01:33:50.320Z,16.97
2018-09-17T01:34:50.291Z,16.96
2018-09-17T01:35:50.247Z,16.84
2018-09-17T01:36:50.223Z,16.90
2018-09-17T01:37:50.180Z,16.83
2018-09-17T01:38:50.146Z,16.78
2018-09-17T01:39:50.117Z,16.78
2018-09-17T01:40:50.106Z,16.79
2018-09-17T01:41:50.042Z,16.78
2018-09-17T01:42:50.009Z,16.78
2018-09-17T01:43:49.975Z,16.84
2018-09-17T01:44:49.945Z,16.65
2018-09-17T01:45:49.902Z,16.65
2018-09-17T01:46:49.866Z,16.64
2018-09-17T01:47:49.835Z,16.68
2018-09-17T01:48:49.795Z,16.71
2018-09-17T01:49:49.763Z,16.66
2018-09-17T01:50:49.730Z,16.66
2018-09-17T01:51:49.703Z,16.61
2018-09-17T01:52:49.664Z,16.64
2018-09-17T01:53:49.624Z,16.56
2018-09-17T01:54:49.593Z,16.54
2018-09-17T01:55:49.552Z,16.53
2018-09-17T01:56:49.524Z,16.54
2018-09-17T01:57:49.485Z,16.50
2018-09-17T01:58:49.455Z,16.50
2018-09-17T01:59:49.412Z,16.54
2018-09-17T02:00:49.377Z,16.38
2018-09-17T02:01:49.345Z,16.43
2018-09-17T02:02:49.311Z,16.53
2018-09-17T02:03:49.277Z,16.47
2018-09-17T02:04:49.243Z,16.53
2018-09-17T02:05:49.206Z,16.47
2018-09-17T02:06:49.174Z,16.47
2018-09-17T02:07:49.134Z,16.43
2018-09-17T02:08:49.136Z,16.53
2018-09-17T02:09:49.065Z,16.47
2018-09-17T02:10:49.031Z,16.49
2018-09-17T02:11:48.998Z,16.51
2018-09-17T02:12:48.958Z,16.49
2018-09-17T02:13:48.924Z,16.49
2018-09-17T02:14:48.894Z,16.49
2018-09-17T02:15:48.857Z,16.54
2018-09-17T02:16:48.824Z,16.47
2018-09-17T02:17:48.786Z,16.60
2018-09-17T02:18:48.753Z,16.50
2018-09-17T02:19:48.713Z,16.53
2018-09-17T02:20:48.677Z,16.46
2018-09-17T02:21:48.646Z,16.47
2018-09-17T02:22:48.611Z,16.46
2018-09-17T02:23:48.578Z,16.51
2018-09-17T02:24:48.543Z,16.41
2018-09-17T02:25:48.507Z,16.42
2018-09-17T02:26:48.473Z,16.39
2018-09-17T02:27:48.431Z,16.42
2018-09-17T02:28:48.403Z,16.47
2018-09-17T02:29:48.368Z,16.46
2018-09-17T02:30:48.329Z,16.46
2018-09-17T02:31:48.292Z,16.42
2018-09-17T02:32:48.259Z,16.47
2018-09-17T02:33:48.223Z,16.41
2018-09-17T02:34:48.190Z,16.33
2018-09-17T02:35:48.156Z,16.23
2018-09-17T02:36:48.122Z,16.09
2018-09-17T02:37:48.089Z,15.98
2018-09-17T02:38:48.049Z,15.90
2018-09-17T02:39:48.011Z,15.70
2018-09-17T02:40:47.977Z,15.67
2018-09-17T02:41:47.942Z,15.46
2018-09-17T02:42:47.910Z,15.42
2018-09-17T02:43:47.876Z,15.21
2018-09-17T02:44:47.836Z,15.18
2018-09-17T02:45:47.800Z,15.03
2018-09-17T02:46:47.768Z,15.00
2018-09-17T02:47:47.734Z,15.07
2018-09-17T02:48:47.753Z,15.15
2018-09-17T02:49:47.668Z,15.25
2018-09-17T02:50:47.629Z,15.29
2018-09-17T02:51:47.589Z,15.27
2018-09-17T02:52:47.552Z,15.33
2018-09-17T02:53:47.524Z,15.47
2018-09-17T02:54:47.486Z,15.52
2018-09-17T02:55:47.457Z,15.57
2018-09-17T02:56:47.418Z,15.62
2018-09-17T02:57:47.383Z,15.76
2018-09-17T02:58:47.343Z,15.72
2018-09-17T02:59:47.307Z,15.70
2018-09-17T03:00:47.276Z,15.76
2018-09-17T03:01:47.241Z,15.68
2018-09-17T03:02:47.203Z,15.64
2018-09-17T03:03:47.171Z,15.54
2018-09-17T03:04:47.128Z,15.39
2018-09-17T03:05:47.095Z,15.31
2018-09-17T03:06:47.065Z,15.17
2018-09-17T03:07:47.029Z,15.22
2018-09-17T03:08:46.997Z,15.33
2018-09-17T03:09:46.957Z,15.29
2018-09-17T03:10:46.918Z,15.19
2018-09-17T03:11:46.884Z,15.00
2018-09-17T03:12:46.845Z,15.02
2018-09-17T03:13:46.812Z,15.10
2018-09-17T03:14:46.779Z,14.99
2018-09-17T03:15:46.748Z,15.02
2018-09-17T03:16:46.709Z,14.97
2018-09-17T03:17:46.672Z,15.11
2018-09-17T03:18:46.639Z,15.19
2018-09-17T03:19:46.605Z,15.27
2018-09-17T03:20:46.569Z,15.37
2018-09-17T03:21:46.531Z,15.47
2018-09-17T03:22:46.495Z,15.52
2018-09-17T03:23:46.457Z,15.62
2018-09-17T03:24:46.420Z,15.57
2018-09-17T03:25:46.386Z,15.67
2018-09-17T03:26:46.359Z,15.72
2018-09-17T03:27:46.319Z,15.75
2018-09-17T03:28:46.535Z,15.70
2018-09-17T03:29:46.253Z,15.82
2018-09-17T03:30:46.209Z,15.80
2018-09-17T03:31:46.171Z,15.84
2018-09-17T03:32:46.142Z,15.91
2018-09-17T03:33:46.105Z,15.90
2018-09-17T03:34:46.072Z,16.00
2018-09-17T03:35:46.030Z,15.91
2018-09-17T03:36:45.996Z,15.95
2018-09-17T03:37:45.960Z,15.98
2018-09-17T03:38:45.928Z,15.97
2018-09-17T03:39:45.899Z,16.08
2018-09-17T03:40:45.858Z,16.05
2018-09-17T03:41:45.822Z,16.09
2018-09-17T03:42:45.784Z,16.12
2018-09-17T03:43:45.748Z,16.17
2018-09-17T03:44:45.711Z,16.15
2018-09-17T03:45:45.678Z,16.24
2018-09-17T03:46:45.759Z,16.21
2018-09-17T03:47:45.614Z,16.17
2018-09-17T03:48:45.568Z,16.24
2018-09-17T03:49:45.534Z,16.12
2018-09-17T03:50:45.501Z,16.12
2018-09-17T03:51:45.476Z,16.12
2018-09-17T03:52:45.434Z,16.04
2018-09-17T03:53:45.394Z,16.00
2018-09-17T04:06:55.039Z,16.01
2018-09-17T04:07:54.950Z,15.94
2018-09-17T04:08:54.908Z,16.00
2018-09-17T04:09:54.873Z,16.02
2018-09-17T04:10:54.831Z,16.08
2018-09-17T04:11:54.794Z,16.16
2018-09-17T04:12:54.760Z,16.10
2018-09-17T04:13:54.715Z,16.12
2018-09-17T04:14:54.680Z,16.15
2018-09-17T04:15:54.643Z,16.13
2018-09-17T04:16:54.608Z,16.05
2018-09-17T04:17:54.574Z,16.12
2018-09-17T04:18:54.533Z,16.17
2018-09-17T04:19:54.493Z,16.17
2018-09-17T04:20:54.455Z,16.10
2018-09-17T04:21:54.420Z,16.17
2018-09-17T04:22:54.394Z,16.17
2018-09-17T04:23:54.350Z,16.15
2018-09-17T04:24:54.317Z,16.02
2018-09-17T04:25:54.282Z,16.09
2018-09-17T04:26:54.242Z,16.15
2018-09-17T04:27:54.202Z,16.13
2018-09-17T04:28:54.185Z,16.15
2018-09-17T04:29:54.138Z,16.13
2018-09-17T04:30:54.097Z,16.12
2018-09-17T04:31:54.059Z,16.08
2018-09-17T04:32:54.025Z,16.10
2018-09-17T04:33:53.985Z,16.05
2018-09-17T04:34:53.952Z,16.08
2018-09-17T04:35:53.920Z,16.04
2018-09-17T04:36:53.884Z,15.98
2018-09-17T04:37:53.850Z,16.00
2018-09-17T04:38:53.810Z,15.98
2018-09-17T04:39:53.874Z,15.98
2018-09-17T04:40:53.734Z,16.05
2018-09-17T04:41:53.699Z,16.00
2018-09-17T04:42:53.668Z,15.90
2018-09-17T04:43:53.631Z,15.84
2018-09-17T04:44:53.598Z,15.79
2018-09-17T04:45:53.562Z,15.67
2018-09-17T04:46:53.523Z,15.77
2018-09-17T04:47:53.490Z,15.68
2018-09-17T04:48:53.456Z,15.58
2018-09-17T04:49:53.420Z,15.58
2018-09-17T04:50:53.382Z,15.59
2018-09-17T04:51:53.343Z,15.62
2018-09-17T04:52:53.311Z,15.49
2018-09-17T04:53:53.271Z,15.51
2018-09-17T04:54:53.239Z,15.58
2018-09-17T04:55:53.204Z,15.59
2018-09-17T04:56:53.169Z,15.49
2018-09-17T04:57:53.136Z,15.42
2018-09-17T04:58:53.097Z,15.51
2018-09-17T04:59:53.058Z,15.49
2018-09-17T05:00:53.020Z,15.47
2018-09-17T05:01:52.992Z,15.49
2018-09-17T05:02:52.956Z,15.49
2018-09-17T05:03:52.915Z,15.46
2018-09-17T05:04:52.881Z,15.44
2018-09-17T05:05:52.843Z,15.39
2018-09-17T05:06:52.815Z,15.49
2018-09-17T05:07:52.774Z,15.43
2018-09-17T05:08:52.742Z,15.44
2018-09-17T05:09:52.710Z,15.43
2018-09-17T05:10:52.668Z,15.39
2018-09-17T05:11:52.630Z,15.39
2018-09-17T05:12:52.667Z,15.37
2018-09-17T05:13:52.556Z,15.28
2018-09-17T05:14:52.525Z,15.29
2018-09-17T05:15:52.496Z,15.17
2018-09-17T05:16:52.454Z,15.21
2018-09-17T05:17:52.417Z,15.10
2018-09-17T05:18:52.384Z,15.04
2018-09-17T05:19:52.345Z,15.02
2018-09-17T05:20:52.315Z,14.97
2018-09-17T05:21:52.277Z,14.92
2018-09-17T05:22:52.258Z,15.03
2018-09-17T05:23:52.205Z,15.03
2018-09-17T05:24:52.164Z,15.04
2018-09-17T05:25:52.127Z,14.97
2018-09-17T05:26:52.107Z,15.03
2018-09-17T05:27:52.060Z,15.00
2018-09-17T05:28:52.033Z,14.97
2018-09-17T05:29:51.995Z,15.04
2018-09-17T05:30:51.952Z,15.06
2018-09-17T05:31:51.920Z,15.09
2018-09-17T05:32:51.880Z,15.04
2018-09-17T05:33:51.845Z,15.02
2018-09-17T05:34:51.826Z,15.00
2018-09-17T05:35:51.769Z,15.06
2018-09-17T05:36:51.737Z,15.14
2018-09-17T05:37:51.700Z,15.15
2018-09-17T05:38:51.662Z,15.04
2018-09-17T05:39:51.628Z,15.21
2018-09-17T05:40:51.595Z,15.19
2018-09-17T05:41:51.561Z,15.31
2018-09-17T05:42:51.523Z,15.33
2018-09-17T05:43:51.488Z,15.37
2018-09-17T05:44:51.445Z,15.37
2018-09-17T05:45:51.411Z,15.44
2018-09-17T05:46:51.378Z,15.33
2018-09-17T05:47:51.341Z,15.46
2018-09-17T05:48:51.309Z,15.33
2018-09-17T05:49:51.271Z,15.36
2018-09-17T05:50:51.238Z,15.42
2018-09-17T05:51:51.207Z,15.36
2018-09-17T05:52:51.166Z,15.43
2018-09-17T05:53:51.183Z,15.47
2018-09-17T05:54:51.094Z,15.37
2018-09-17T05:55:51.057Z,15.44
2018-09-17T05:56:51.015Z,15.43
2018-09-17T05:57:50.982Z,15.44
2018-09-17T05:58:50.947Z,15.43
2018-09-17T05:59:50.914Z,15.37
2018-09-17T06:00:50.884Z,15.31
2018-09-17T06:01:50.846Z,15.33
2018-09-17T06:02:50.809Z,15.29
2018-09-17T06:03:50.767Z,15.28
2018-09-17T06:04:50.734Z,15.29
2018-09-17T06:05:50.712Z,15.24
2018-09-17T06:06:50.718Z,15.25
2018-09-17T06:07:50.625Z,15.21
2018-09-17T06:08:50.589Z,15.24
2018-09-17T06:09:50.624Z,15.31
2018-09-17T06:10:50.520Z,15.25
2018-09-17T06:11:50.512Z,15.27
2018-09-17T06:12:50.449Z,15.36
2018-09-17T06:13:50.412Z,15.37
2018-09-17T06:14:50.378Z,15.35
2018-09-17T06:15:50.339Z,15.37
2018-09-17T06:16:50.299Z,15.21
2018-09-17T06:17:50.274Z,14.99
2018-09-17T06:18:50.230Z,14.91
2018-09-17T06:19:50.270Z,14.84
2018-09-17T06:20:50.170Z,14.84
2018-09-17T06:21:50.122Z,14.82
2018-09-17T06:22:50.094Z,14.89
2018-09-17T06:23:50.056Z,14.97
2018-09-17T06:24:50.021Z,14.99
2018-09-17T06:25:49.988Z,15.03
2018-09-17T06:26:50.001Z,15.15
2018-09-17T06:27:49.912Z,15.15
2018-09-17T06:28:49.899Z,15.24
2018-09-17T06:29:49.839Z,15.40
2018-09-17T06:30:49.805Z,15.49
2018-09-17T06:31:49.771Z,15.58
2018-09-17T06:32:49.736Z,15.58
2018-09-17T06:33:49.703Z,15.67
2018-09-17T06:34:49.664Z,15.88
2018-09-17T06:35:49.629Z,15.90
2018-09-17T06:36:49.588Z,15.97
2018-09-17T06:37:49.566Z,15.98
2018-09-17T06:38:49.527Z,16.13
2018-09-17T06:39:49.484Z,16.13
2018-09-17T06:40:49.448Z,16.24
2018-09-17T06:41:49.414Z,16.24
2018-09-17T06:42:49.380Z,16.32
2018-09-17T06:43:49.347Z,16.33
2018-09-17T06:44:49.372Z,16.26
2018-09-17T06:45:49.279Z,16.32
2018-09-17T06:46:49.243Z,16.31
2018-09-17T06:47:49.203Z,16.26
2018-09-17T06:48:49.165Z,16.38
2018-09-17T06:49:49.129Z,16.47
2018-09-17T06:50:49.096Z,16.50
2018-09-17T06:51:49.065Z,16.42
2018-09-17T06:52:49.033Z,16.42
2018-09-17T06:53:49.008Z,16.39
2018-09-17T06:54:48.956Z,16.42
2018-09-17T06:55:48.923Z,16.51
2018-09-17T06:56:48.889Z,16.58
2018-09-17T06:57:48.860Z,16.64
2018-09-17T06:58:48.822Z,16.64
2018-09-17T06:59:48.782Z,16.65
2018-09-17T07:00:48.747Z,16.66
2018-09-17T07:01:48.711Z,16.64
2018-09-17T07:02:48.678Z,16.60
2018-09-17T07:03:48.643Z,16.64
2018-09-17T07:04:48.614Z,16.65
2018-09-17T07:05:48.581Z,16.64
2018-09-17T07:06:48.540Z,16.75
2018-09-17T07:07:48.503Z,16.65
2018-09-17T07:08:48.471Z,16.72
2018-09-17T07:09:48.437Z,16.78
2018-09-17T07:10:48.402Z,16.84
2018-09-17T07:11:48.363Z,16.84
2018-09-17T07:12:48.331Z,16.90
2018-09-17T07:13:48.291Z,16.91
2018-09-17T07:14:48.259Z,16.97
2018-09-17T07:15:48.229Z,16.97
2018-09-17T07:16:48.195Z,17.09
2018-09-17T07:17:48.158Z,17.08
2018-09-17T07:18:48.119Z,17.14
2018-09-17T07:19:48.101Z,17.22
2018-09-17T07:20:48.059Z,17.22
2018-09-17T07:21:48.020Z,17.33
2018-09-17T07:22:47.989Z,17.39
2018-09-17T07:23:47.953Z,17.49
2018-09-17T07:24:47.915Z,17.60
2018-09-17T07:25:47.884Z,17.63
2018-09-17T07:26:47.849Z,17.67
2018-09-17T07:27:47.809Z,17.68
2018-09-17T07:28:47.780Z,17.79
2018-09-17T07:29:47.746Z,17.80
2018-09-17T07:30:47.708Z,17.85
2018-09-17T07:31:47.677Z,17.92
2018-09-17T07:32:47.650Z,18.05
2018-09-17T07:33:47.611Z,18.08
2018-09-17T07:34:47.579Z,18.05
2018-09-17T07:35:47.538Z,18.11
2018-09-17T07:36:47.503Z,18.19
2018-09-17T07:37:47.474Z,18.26
2018-09-17T07:38:47.436Z,18.25
2018-09-17T07:39:47.408Z,18.25
2018-09-17T07:40:47.370Z,18.34
2018-09-17T07:41:47.337Z,18.47
2018-09-17T07:42:47.297Z,18.45
2018-09-17T07:43:47.275Z,18.56
2018-09-17T07:44:47.234Z,18.58
2018-09-17T07:45:47.199Z,18.75
2018-09-17T07:46:47.168Z,18.81
2018-09-17T07:47:47.131Z,18.96
2018-09-17T07:48:47.098Z,19.07
2018-09-17T07:49:47.092Z,19.11
2018-09-17T07:50:47.039Z,19.18
2018-09-17T07:51:47.000Z,19.18
2018-09-17T07:52:46.980Z,19.24
2018-09-17T07:53:46.931Z,19.21
2018-09-17T07:54:46.899Z,19.33
2018-09-17T07:55:46.864Z,19.33
2018-09-17T07:56:46.832Z,19.36
2018-09-17T07:57:46.799Z,19.49
2018-09-17T07:58:46.773Z,19.52
2018-09-17T07:59:46.730Z,19.63
2018-09-17T08:00:46.696Z,19.63
2018-09-17T08:01:46.661Z,19.69
2018-09-17T08:02:46.628Z,19.85
2018-09-17T08:03:46.598Z,19.88
2018-09-17T08:04:46.587Z,19.91
2018-09-17T08:05:46.652Z,19.94
2018-09-17T08:06:46.501Z,20.03
2018-09-17T08:07:46.462Z,20.09
2018-09-17T08:08:46.427Z,20.11
2018-09-17T08:09:46.403Z,20.07
2018-09-17T08:10:46.363Z,20.19
2018-09-17T08:11:46.337Z,20.16
2018-09-17T08:12:46.298Z,20.31
2018-09-17T08:13:46.263Z,20.26
2018-09-17T08:14:46.235Z,20.51
2018-09-17T08:15:46.201Z,20.62
2018-09-17T08:16:46.166Z,20.66
2018-09-17T08:17:46.134Z,20.74
2018-09-17T08:18:46.106Z,20.81
2018-09-17T08:19:46.136Z,20.72
2018-09-17T08:20:46.037Z,20.72
2018-09-17T08:21:46.004Z,20.80
2018-09-17T08:22:45.968Z,20.92
2018-09-17T08:23:45.944Z,20.87
2018-09-17T08:24:45.908Z,20.90
2018-09-17T08:25:45.877Z,20.96
2018-09-17T08:26:45.847Z,20.95
2018-09-17T08:27:45.805Z,20.99
2018-09-17T08:28:45.775Z,21.06
2018-09-17T08:29:45.749Z,21.00
2018-09-17T08:30:45.715Z,21.07
2018-09-17T08:31:45.679Z,21.09
2018-09-17T08:32:45.647Z,21.12
2018-09-17T08:33:45.618Z,21.15
2018-09-17T08:34:45.582Z,21.18
2018-09-17T08:35:45.557Z,21.21
2018-09-17T08:36:45.518Z,21.15
2018-09-17T08:37:45.493Z,21.17
2018-09-17T08:38:45.456Z,21.33
2018-09-17T08:39:45.415Z,21.29
2018-09-17T08:40:45.386Z,21.37
2018-09-17T08:41:45.356Z,21.29
2018-09-17T08:42:45.324Z,21.21
2018-09-17T08:43:45.294Z,21.32
2018-09-17T08:44:45.261Z,21.32
2018-09-17T08:45:45.236Z,21.35
2018-09-17T08:46:45.191Z,21.40
2018-09-17T08:47:45.166Z,21.36
2018-09-17T08:48:45.138Z,21.32
2018-09-17T08:49:45.100Z,21.25
2018-09-17T08:50:45.075Z,21.35
2018-09-17T08:51:45.032Z,21.25
2018-09-17T08:52:45.034Z,21.40
2018-09-17T08:53:44.970Z,21.51
2018-09-17T08:54:44.936Z,21.62
2018-09-17T08:55:44.910Z,21.58
2018-09-17T08:56:44.875Z,21.64
2018-09-17T08:57:44.846Z,21.58
2018-09-17T08:58:44.817Z,21.62
2018-09-17T08:59:44.777Z,21.76
2018-09-17T09:00:44.749Z,21.67
2018-09-17T09:01:44.720Z,21.73
2018-09-17T09:02:44.694Z,21.69
2018-09-17T09:03:44.653Z,21.88
2018-09-17T09:04:44.621Z,21.83
2018-09-17T09:05:44.592Z,21.85
2018-09-17T09:06:44.558Z,21.89
2018-09-17T09:07:44.531Z,21.88
2018-09-17T09:08:44.496Z,21.88
2018-09-17T09:09:44.467Z,21.99
2018-09-17T09:10:44.437Z,22.11
2018-09-17T09:11:44.397Z,22.23
2018-09-17T09:12:44.371Z,22.30
2018-09-17T09:13:44.338Z,22.33
2018-09-17T09:14:44.304Z,22.41
2018-09-17T09:15:44.279Z,22.43
2018-09-17T09:16:44.247Z,22.43
2018-09-17T09:17:44.213Z,22.38
2018-09-17T09:18:44.178Z,22.30
2018-09-17T09:19:44.196Z,22.26
2018-09-17T09:20:44.118Z,22.32
2018-09-17T09:21:44.089Z,22.32
2018-09-17T09:22:44.059Z,22.36
2018-09-17T09:23:44.022Z,22.44
2018-09-17T09:24:43.990Z,22.51
2018-09-17T09:25:43.963Z,22.53
2018-09-17T09:26:43.930Z,22.76
2018-09-17T09:27:43.917Z,22.72
2018-09-17T09:28:43.877Z,22.81
2018-09-17T09:29:43.838Z,22.96
2018-09-17T09:30:43.901Z,22.94
2018-09-17T09:31:43.771Z,22.85
2018-09-17T09:32:43.745Z,22.88
2018-09-17T09:33:43.717Z,22.91
2018-09-17T09:34:43.685Z,22.88
2018-09-17T09:35:43.649Z,22.85
2018-09-17T09:36:43.618Z,22.83
2018-09-17T09:37:43.590Z,22.80
2018-09-17T09:38:43.555Z,22.78
2018-09-17T09:39:43.530Z,22.84
2018-09-17T09:40:43.496Z,22.88
2018-09-17T09:41:43.486Z,22.94
2018-09-17T09:42:43.438Z,22.85
2018-09-17T09:43:43.399Z,22.94
2018-09-17T09:44:43.372Z,22.98
2018-09-17T09:45:43.341Z,22.98
2018-09-17T09:46:43.306Z,23.06
2018-09-17T09:47:43.280Z,23.03
2018-09-17T09:48:43.247Z,23.10
2018-09-17T09:49:43.240Z,23.18
2018-09-17T09:50:43.184Z,23.09
2018-09-17T09:51:43.159Z,23.24
2018-09-17T09:52:43.146Z,23.13
2018-09-17T09:53:43.100Z,23.32
2018-09-17T09:54:43.065Z,23.24
2018-09-17T09:55:43.026Z,23.44
2018-09-17T09:56:43.001Z,23.39
2018-09-17T09:57:42.967Z,23.48
2018-09-17T09:58:42.937Z,23.41
2018-09-17T09:59:42.938Z,23.39
2018-09-17T10:00:42.881Z,23.43
2018-09-17T10:01:42.849Z,23.27
2018-09-17T10:02:42.826Z,23.40
2018-09-17T10:03:42.781Z,23.48
2018-09-17T10:04:42.753Z,23.63
2018-09-17T10:05:42.726Z,23.69
2018-09-17T10:06:42.697Z,23.73
2018-09-17T10:21:42.490Z,23.88
2018-09-17T10:22:42.398Z,23.95
2018-09-17T10:23:42.364Z,23.86
2018-09-17T10:24:42.344Z,23.81
2018-09-17T10:25:42.300Z,23.84
2018-09-17T10:26:42.307Z,23.92
2018-09-17T10:27:42.233Z,24.01
2018-09-17T10:28:42.196Z,24.26
2018-09-17T10:29:42.164Z,24.29
2018-09-17T10:30:42.132Z,24.42
2018-09-17T10:31:42.099Z,24.43
2018-09-17T10:32:42.088Z,24.40
2018-09-17T10:33:42.043Z,24.51
2018-09-17T10:34:42.000Z,24.43
2018-09-17T10:35:41.970Z,24.33
2018-09-17T10:36:41.938Z,24.38
2018-09-17T10:37:41.909Z,24.32
2018-09-17T10:38:41.881Z,24.40
2018-09-17T10:39:41.853Z,24.57
2018-09-17T10:40:41.817Z,24.66
2018-09-17T10:41:41.793Z,24.69
2018-09-17T10:42:41.751Z,24.65
2018-09-17T10:43:41.722Z,24.58
2018-09-17T10:44:41.747Z,24.63
2018-09-17T10:45:41.664Z,24.58
2018-09-17T10:46:41.630Z,24.65
2018-09-17T10:47:41.599Z,24.73
2018-09-17T10:48:41.570Z,24.69
2018-09-17T10:49:41.536Z,24.66
2018-09-17T10:50:41.516Z,24.63
2018-09-17T10:51:41.478Z,24.68
2018-09-17T10:52:41.450Z,24.63
2018-09-17T10:53:41.424Z,24.57
2018-09-17T10:54:41.388Z,24.68
2018-09-17T10:55:41.355Z,24.73
2018-09-17T10:56:41.331Z,24.76
2018-09-17T10:57:41.295Z,24.86
2018-09-17T10:58:41.269Z,24.68
2018-09-17T10:59:41.239Z,24.57
2018-09-17T11:00:41.206Z,24.57
2018-09-17T11:01:41.173Z,24.47
2018-09-17T11:02:41.152Z,24.54
2018-09-17T11:03:41.121Z,24.53
2018-09-17T11:04:41.087Z,24.61
2018-09-17T11:05:41.062Z,24.55
2018-09-17T11:06:41.023Z,24.57
2018-09-17T11:07:41.003Z,24.58
2018-09-17T11:08:40.969Z,24.55
2018-09-17T11:09:40.937Z,24.80
2018-09-17T11:10:40.921Z,24.70
2018-09-17T11:11:40.879Z,24.78
2018-09-17T11:12:40.847Z,24.80
2018-09-17T11:13:40.820Z,24.70
2018-09-17T11:14:40.782Z,24.61
2018-09-17T11:15:40.754Z,24.50
2018-09-17T11:16:40.726Z,24.55
2018-09-17T11:17:40.728Z,24.57
2018-09-17T11:18:40.665Z,24.60
2018-09-17T11:19:40.637Z,25.04
2018-09-17T11:20:40.679Z,24.98
2018-09-17T11:21:40.578Z,25.21
2018-09-17T11:22:40.557Z,25.16
2018-09-17T11:23:40.524Z,25.18
2018-09-17T11:24:40.491Z,25.31
2018-09-17T11:25:40.462Z,25.31
2018-09-17T11:26:40.429Z,25.28
2018-09-17T11:27:40.399Z,25.28
2018-09-17T11:28:40.369Z,25.22
2018-09-17T11:29:40.338Z,25.26
2018-09-17T11:30:40.318Z,25.35
2018-09-17T11:31:40.288Z,25.43
2018-09-17T11:32:40.253Z,25.35
2018-09-17T11:33:40.219Z,25.35
2018-09-17T11:34:40.205Z,25.29
2018-09-17T11:35:40.167Z,25.25
2018-09-17T11:36:40.139Z,25.32
2018-09-17T11:37:40.108Z,25.40
2018-09-17T11:38:40.073Z,25.40
2018-09-17T11:39:40.049Z,25.33
2018-09-17T11:40:40.089Z,25.60
2018-09-17T11:41:39.991Z,25.70
2018-09-17T11:42:39.964Z,25.81
2018-09-17T11:43:39.932Z,25.70
2018-09-17T11:44:39.902Z,25.83
2018-09-17T11:45:39.876Z,25.81
2018-09-17T11:46:39.839Z,25.77
2018-09-17T11:47:39.813Z,25.77
2018-09-17T11:48:39.843Z,25.78
2018-09-17T11:49:39.761Z,26.00
2018-09-17T11:50:39.723Z,26.16
2018-09-17T11:51:39.696Z,26.18
2018-09-17T11:52:39.668Z,26.18
2018-09-17T11:53:39.635Z,26.25
2018-09-17T11:54:39.619Z,26.26
2018-09-17T11:55:39.583Z,26.36
2018-09-17T11:56:39.552Z,26.38
2018-09-17T11:57:39.524Z,26.21
2018-09-17T11:58:39.489Z,26.18
2018-09-17T11:59:39.464Z,26.15
2018-09-17T12:00:39.433Z,26.10
2018-09-17T12:01:39.457Z,26.16
2018-09-17T12:02:39.384Z,26.22
2018-09-17T12:03:39.352Z,26.25
2018-09-17T12:04:39.317Z,26.23
2018-09-17T12:05:39.285Z,26.22
2018-09-17T12:06:39.264Z,26.38
2018-09-17T12:07:39.233Z,26.41
2018-09-17T12:08:39.205Z,26.55
2018-09-17T12:09:39.183Z,26.59
2018-09-17T12:10:39.142Z,26.70
2018-09-17T12:11:39.119Z,26.65
2018-09-17T12:12:39.086Z,26.65
2018-09-17T12:13:39.057Z,26.68
2018-09-17T12:14:39.036Z,26.74
2018-09-17T12:15:39.002Z,26.70
2018-09-17T12:16:38.973Z,26.56
2018-09-17T12:17:38.952Z,26.41
2018-09-17T12:18:38.914Z,26.55
2018-09-17T12:19:38.886Z,26.41
2018-09-17T12:20:38.862Z,26.48
2018-09-17T12:21:38.834Z,26.47
2018-09-17T12:22:38.799Z,26.40
2018-09-17T12:23:38.774Z,26.53
2018-09-17T12:24:38.745Z,26.68
2018-09-17T12:25:38.714Z,26.78
2018-09-17T12:26:38.695Z,26.95
2018-09-17T12:27:38.664Z,26.97
2018-09-17T12:28:38.632Z,27.12
2018-09-17T12:29:38.612Z,27.02
2018-09-17T12:30:38.573Z,26.93
2018-09-17T12:31:38.543Z,26.93
2018-09-17T12:32:38.517Z,26.81
2018-09-17T12:33:38.533Z,27.11
2018-09-17T12:34:38.463Z,26.96
2018-09-17T12:35:38.433Z,26.96
2018-09-17T12:36:38.401Z,26.95
2018-09-17T12:37:38.378Z,27.11
2018-09-17T12:38:38.351Z,27.11
2018-09-17T12:39:38.318Z,27.15
2018-09-17T12:40:38.291Z,27.15
2018-09-17T12:41:38.266Z,27.21
2018-09-17T12:42:38.227Z,27.20
2018-09-17T12:43:38.201Z,27.20
2018-09-17T12:44:38.175Z,27.21
2018-09-17T12:45:38.146Z,27.11
2018-09-17T12:46:38.123Z,27.05
2018-09-17T12:47:38.097Z,26.99
2018-09-17T12:48:38.065Z,26.90
2018-09-17T12:49:38.041Z,26.77
2018-09-17T12:50:38.021Z,26.71
2018-09-17T12:51:37.974Z,26.70
2018-09-17T12:54:15.640Z,26.97
2018-09-17T12:55:09.987Z,26.95
2018-09-17T12:56:09.958Z,26.95
2018-09-17T12:57:09.955Z,26.84
2018-09-17T12:58:09.906Z,26.89
2018-09-17T12:59:09.874Z,26.77
2018-09-17T13:00:09.855Z,26.77
2018-09-17T13:01:10.211Z,26.81
2018-09-17T13:02:09.791Z,26.95
2018-09-17T13:03:09.778Z,26.99
2018-09-17T13:04:09.736Z,27.02
2018-09-17T13:05:09.707Z,27.10
2018-09-17T13:06:09.680Z,27.12
2018-09-17T13:07:09.656Z,27.17
2018-09-17T13:08:09.626Z,27.18
2018-09-17T13:09:09.594Z,27.22
2018-09-17T13:10:09.565Z,27.20
2018-09-17T13:11:09.538Z,27.03
2018-09-17T13:12:09.513Z,26.95
2018-09-17T13:13:09.485Z,27.00
2018-09-17T13:14:09.457Z,26.95
2018-09-17T13:15:09.428Z,26.96
2018-09-17T13:16:09.394Z,27.02
2018-09-17T13:17:09.367Z,26.95
2018-09-17T13:18:09.338Z,26.96
2018-09-17T13:19:09.315Z,26.97
2018-09-17T13:20:09.288Z,26.97